Time;durP1;ratioP1;P1;durP2;ratioP2;P2;SDS_P1;SDS_P2;PMS_P1;PMS_P2;Temp;Humidity;BMP_temperature;BMP_pressure;BME280_temperature;BME280_humidity;BME280_pressure;Samples;Min_cycle;Max_cycle;Signal;HPM_P1;HPM_P2
2023/12/10 00:01:58;;;;;;;195.67;83.50;;;;;;;;;;10471793;28;20074;-82
2023/12/10 00:06:59;;;;;;;174.17;79.77;;;;;;;;;;10466189;28;20400;-81
2023/12/10 00:12:00;;;;;;;159.53;76.03;;;;;;;;;;10462918;28;20039;-81
2023/12/10 00:17:01;;;;;;;197.00;84.70;;;;;;;;;;10465851;28;20432;-82
2023/12/10 00:22:02;;;;;;;173.80;80.17;;;;;;;;;;10459572;28;20033;-81
2023/12/10 00:27:03;;;;;;;173.03;74.17;;;;;;;;;;10463412;28;20649;-81
2023/12/10 00:32:04;;;;;;;147.43;67.13;;;;;;;;;;10463657;28;20029;-82
2023/12/10 00:37:05;;;;;;;160.90;73.27;;;;;;;;;;10461535;28;20040;-82
2023/12/10 00:42:07;;;;;;;150.03;64.80;;;;;;;;;;10438735;28;20083;-82
2023/12/10 00:47:08;;;;;;;145.57;64.53;;;;;;;;;;10433227;28;20041;-82
2023/12/10 00:52:09;;;;;;;144.27;63.60;;;;;;;;;;10442530;28;20049;-83
2023/12/10 00:57:12;;;;;;;147.53;67.23;;;;;;;;;;10416622;28;20061;-83
2023/12/10 01:02:13;;;;;;;153.03;67.77;;;;;;;;;;10422056;28;20100;-83
2023/12/10 01:07:16;;;;;;;157.67;69.47;;;;;;;;;;10431924;28;20065;-83
2023/12/10 01:12:17;;;;;;;138.37;64.07;;;;;;;;;;10429253;28;20128;-83
2023/12/10 01:17:19;;;;;;;152.53;67.33;;;;;;;;;;10430425;28;20083;-83
2023/12/10 01:22:20;;;;;;;144.27;64.13;;;;;;;;;;10432147;28;20108;-82
2023/12/10 01:27:21;;;;;;;148.60;66.27;;;;;;;;;;10430894;28;20052;-82
2023/12/10 01:32:22;;;;;;;144.80;61.83;;;;;;;;;;10438282;28;20613;-82
2023/12/10 01:37:23;;;;;;;144.67;66.23;;;;;;;;;;10445490;28;20564;-82
2023/12/10 01:42:24;;;;;;;147.87;68.03;;;;;;;;;;10491073;28;20044;-83
2023/12/10 01:47:25;;;;;;;137.50;65.67;;;;;;;;;;10483097;28;20032;-83
2023/12/10 01:52:27;;;;;;;122.00;58.23;;;;;;;;;;10485186;28;20509;-82
2023/12/10 01:57:34;;;;;;;122.73;57.13;;;;;;;;;;10483067;28;20119;-82
2023/12/10 02:02:36;;;;;;;126.33;62.17;;;;;;;;;;10482125;28;20528;-82
2023/12/10 02:07:38;;;;;;;131.70;58.40;;;;;;;;;;10483317;28;20480;-82
2023/12/10 02:12:40;;;;;;;141.40;61.93;;;;;;;;;;10480848;28;20059;-82
2023/12/10 02:17:44;;;;;;;131.67;59.33;;;;;;;;;;10483529;28;20511;-82
2023/12/10 02:23:06;;;;;;;137.37;61.37;;;;;;;;;;10480202;28;20071;-82
2023/12/10 02:28:22;;;;;;;133.77;63.60;;;;;;;;;;10470286;28;20404;-82
2023/12/10 02:33:23;;;;;;;120.70;57.50;;;;;;;;;;10463404;28;20032;-82
2023/12/10 02:38:24;;;;;;;127.03;57.23;;;;;;;;;;10476112;28;20161;-82
2023/12/10 02:43:32;;;;;;;122.43;56.40;;;;;;;;;;10476276;28;20587;-82
2023/12/10 02:48:33;;;;;;;109.50;49.10;;;;;;;;;;10462098;28;20045;-82
2023/12/10 02:53:34;;;;;;;112.17;53.00;;;;;;;;;;10462061;28;20032;-82
2023/12/10 02:58:36;;;;;;;96.40;46.20;;;;;;;;;;10473130;28;20021;-82
2023/12/10 03:03:37;;;;;;;106.97;46.87;;;;;;;;;;10478910;28;20032;-82
2023/12/10 03:08:38;;;;;;;95.20;44.37;;;;;;;;;;10469357;28;20082;-82
2023/12/10 03:13:39;;;;;;;96.43;43.40;;;;;;;;;;10474001;28;20434;-82
2023/12/10 03:18:40;;;;;;;91.63;41.67;;;;;;;;;;10471596;28;20113;-82
2023/12/10 03:23:41;;;;;;;103.57;44.33;;;;;;;;;;10470972;28;20036;-82
2023/12/10 03:28:42;;;;;;;89.03;40.13;;;;;;;;;;10479453;28;20039;-82
2023/12/10 03:33:43;;;;;;;89.37;42.17;;;;;;;;;;10475767;28;20111;-82
2023/12/10 03:38:46;;;;;;;83.00;37.60;;;;;;;;;;10456786;28;20175;-82
2023/12/10 03:43:47;;;;;;;86.33;38.80;;;;;;;;;;10440802;28;20445;-82
2023/12/10 03:48:48;;;;;;;92.83;43.40;;;;;;;;;;10433801;28;20412;-82
2023/12/10 03:53:49;;;;;;;84.43;36.63;;;;;;;;;;10436985;28;20033;-82
2023/12/10 03:58:51;;;;;;;84.30;38.00;;;;;;;;;;10432624;28;20049;-82
2023/12/10 04:03:52;;;;;;;90.73;41.33;;;;;;;;;;10422611;28;20120;-82
2023/12/10 04:08:53;;;;;;;87.13;38.50;;;;;;;;;;10430848;28;20058;-82
2023/12/10 04:13:55;;;;;;;93.97;38.87;;;;;;;;;;10442935;28;20025;-82
2023/12/10 04:18:56;;;;;;;85.30;39.53;;;;;;;;;;10462985;28;20054;-82
2023/12/10 04:23:57;;;;;;;86.40;38.70;;;;;;;;;;10466403;28;20078;-82
2023/12/10 04:28:58;;;;;;;83.83;36.87;;;;;;;;;;10492342;28;20127;-82
2023/12/10 04:34:01;;;;;;;80.00;37.10;;;;;;;;;;10476855;28;20068;-82
2023/12/10 04:39:02;;;;;;;87.57;39.13;;;;;;;;;;10452001;28;20057;-82
2023/12/10 04:44:03;;;;;;;88.50;40.80;;;;;;;;;;10433240;28;20033;-82
2023/12/10 04:49:04;;;;;;;84.73;39.90;;;;;;;;;;10438544;28;20033;-82
2023/12/10 04:54:05;;;;;;;90.67;42.43;;;;;;;;;;10441743;28;20072;-82
2023/12/10 04:59:06;;;;;;;92.83;40.73;;;;;;;;;;10426754;28;20503;-82
2023/12/10 05:04:07;;;;;;;87.13;42.03;;;;;;;;;;10437540;28;20358;-82
2023/12/10 05:09:10;;;;;;;95.37;42.13;;;;;;;;;;10435495;28;20123;-82
2023/12/10 05:14:11;;;;;;;85.37;41.10;;;;;;;;;;10411270;28;20037;-81
2023/12/10 05:19:13;;;;;;;88.87;42.10;;;;;;;;;;10437717;28;20037;-82
2023/12/10 05:24:14;;;;;;;91.23;41.63;;;;;;;;;;10436144;28;20068;-82
2023/12/10 05:29:15;;;;;;;89.87;41.43;;;;;;;;;;10431872;28;20102;-81
2023/12/10 05:34:16;;;;;;;89.80;41.17;;;;;;;;;;10415167;28;20068;-82
2023/12/10 05:39:17;;;;;;;86.70;41.50;;;;;;;;;;10466540;28;20059;-81
2023/12/10 05:44:18;;;;;;;86.47;40.87;;;;;;;;;;10477798;28;20116;-82
2023/12/10 05:49:22;;;;;;;90.03;41.63;;;;;;;;;;10452412;28;20052;-82
2023/12/10 05:54:23;;;;;;;89.90;40.43;;;;;;;;;;10479831;28;20472;-82
2023/12/10 05:59:24;;;;;;;87.77;41.67;;;;;;;;;;10482908;28;20472;-82
2023/12/10 06:04:26;;;;;;;104.07;47.80;;;;;;;;;;10472275;28;20083;-81
2023/12/10 06:09:27;;;;;;;111.57;51.47;;;;;;;;;;10464654;28;20086;-81
2023/12/10 06:14:28;;;;;;;107.07;52.33;;;;;;;;;;10490066;28;20067;-81
2023/12/10 06:19:29;;;;;;;114.40;51.10;;;;;;;;;;10483498;28;20052;-82
2023/12/10 06:24:30;;;;;;;132.70;53.97;;;;;;;;;;10480282;28;20473;-82
2023/12/10 06:29:31;;;;;;;97.13;48.07;;;;;;;;;;10483638;28;20023;-82
2023/12/10 06:34:32;;;;;;;99.33;46.57;;;;;;;;;;10476157;28;20068;-82
2023/12/10 06:39:33;;;;;;;180.90;78.47;;;;;;;;;;10485835;28;20090;-82
2023/12/10 06:44:35;;;;;;;225.87;112.77;;;;;;;;;;10495492;28;20454;-82
2023/12/10 06:49:44;;;;;;;203.90;90.90;;;;;;;;;;10488304;28;20069;-82
2023/12/10 06:54:45;;;;;;;146.87;74.57;;;;;;;;;;10459730;28;20035;-82
2023/12/10 06:59:47;;;;;;;151.13;83.03;;;;;;;;;;10501541;28;20032;-83
2023/12/10 07:04:48;;;;;;;124.27;60.50;;;;;;;;;;10482915;28;20119;-82
2023/12/10 07:09:49;;;;;;;435.93;214.53;;;;;;;;;;10478426;28;20071;-83
2023/12/10 07:14:50;;;;;;;484.70;228.33;;;;;;;;;;10488432;28;20067;-83
2023/12/10 07:19:51;;;;;;;347.93;155.80;;;;;;;;;;10496459;28;20044;-83
2023/12/10 07:24:52;;;;;;;225.70;114.07;;;;;;;;;;10514581;28;20221;-82
2023/12/10 07:29:53;;;;;;;259.00;133.70;;;;;;;;;;10486744;28;20063;-83
2023/12/10 07:34:54;;;;;;;371.53;179.20;;;;;;;;;;10497235;28;20071;-84
2023/12/10 07:40:02;;;;;;;290.63;133.07;;;;;;;;;;10458567;28;20084;-84
2023/12/10 07:45:04;;;;;;;199.30;96.07;;;;;;;;;;10465367;28;20515;-85
2023/12/10 07:50:05;;;;;;;198.97;109.33;;;;;;;;;;10461310;28;20032;-82
2023/12/10 07:55:06;;;;;;;205.77;105.60;;;;;;;;;;10464726;28;20033;-83
2023/12/10 08:00:08;;;;;;;160.33;89.93;;;;;;;;;;10454238;28;20072;-83
2023/12/10 08:05:09;;;;;;;144.83;76.77;;;;;;;;;;10471029;28;20040;-83
2023/12/10 08:10:10;;;;;;;139.93;73.37;;;;;;;;;;10468347;28;20112;-83
2023/12/10 08:15:11;;;;;;;150.67;72.87;;;;;;;;;;10458914;28;20496;-82
2023/12/10 08:20:20;;;;;;;148.83;73.87;;;;;;;;;;10443237;28;20210;-83
2023/12/10 08:25:21;;;;;;;153.93;80.63;;;;;;;;;;10454750;28;20060;-82
2023/12/10 08:30:29;;;;;;;134.70;65.20;;;;;;;;;;10460368;28;20125;-82
2023/12/10 08:35:31;;;;;;;135.70;72.60;;;;;;;;;;10450679;28;20439;-82
2023/12/10 08:40:38;;;;;;;145.50;76.90;;;;;;;;;;10473864;28;20106;-82
2023/12/10 08:45:46;;;;;;;131.53;68.53;;;;;;;;;;10499998;28;20044;-82
2023/12/10 08:50:47;;;;;;;124.80;60.60;;;;;;;;;;10487832;28;20071;-80
2023/12/10 08:55:49;;;;;;;112.27;58.93;;;;;;;;;;10499203;28;20021;-80
2023/12/10 09:00:50;;;;;;;256.70;118.30;;;;;;;;;;10489255;28;20575;-81
2023/12/10 09:05:51;;;;;;;175.97;88.67;;;;;;;;;;10499152;28;20037;-81
2023/12/10 09:10:53;;;;;;;129.33;65.83;;;;;;;;;;10505614;28;20034;-81
2023/12/10 09:15:54;;;;;;;139.53;65.80;;;;;;;;;;10492873;28;20017;-82
2023/12/10 09:20:55;;;;;;;106.10;51.40;;;;;;;;;;10495296;28;20079;-81
2023/12/10 09:25:56;;;;;;;299.83;154.13;;;;;;;;;;10494239;28;20507;-82
2023/12/10 09:30:57;;;;;;;137.77;63.93;;;;;;;;;;10501831;28;20064;-83
2023/12/10 09:35:58;;;;;;;109.30;48.47;;;;;;;;;;10486480;28;20065;-81
2023/12/10 09:41:00;;;;;;;80.03;38.40;;;;;;;;;;10489829;28;20131;-81
2023/12/10 09:46:03;;;;;;;75.97;37.97;;;;;;;;;;10476948;28;20044;-80
2023/12/10 09:51:04;;;;;;;71.50;34.63;;;;;;;;;;10497044;28;20125;-82
2023/12/10 09:56:05;;;;;;;64.80;30.83;;;;;;;;;;10485479;28;20035;-81
2023/12/10 10:01:08;;;;;;;57.77;28.20;;;;;;;;;;10479375;28;20025;-81
2023/12/10 10:06:09;;;;;;;65.90;31.93;;;;;;;;;;10500294;28;20436;-81
2023/12/10 10:11:10;;;;;;;66.33;31.53;;;;;;;;;;10504283;28;20040;-81
2023/12/10 10:16:12;;;;;;;53.90;25.97;;;;;;;;;;10505685;28;20608;-82
2023/12/10 10:21:13;;;;;;;52.37;26.87;;;;;;;;;;10476142;28;20029;-81
2023/12/10 10:26:14;;;;;;;48.40;24.77;;;;;;;;;;10497251;28;20067;-82
2023/12/10 10:31:15;;;;;;;44.93;24.37;;;;;;;;;;10465204;28;20065;-82
2023/12/10 10:36:19;;;;;;;48.93;24.67;;;;;;;;;;10490222;28;20379;-83
2023/12/10 10:41:21;;;;;;;44.37;22.90;;;;;;;;;;10479463;28;20063;-82
2023/12/10 10:46:22;;;;;;;39.60;20.63;;;;;;;;;;10482843;28;20040;-82
2023/12/10 10:51:28;;;;;;;34.07;17.00;;;;;;;;;;10471617;28;20036;-82
2023/12/10 10:56:29;;;;;;;33.10;16.48;;;;;;;;;;10487806;28;20040;-83
2023/12/10 11:01:40;;;;;;;33.73;16.70;;;;;;;;;;10487484;28;20025;-82
2023/12/10 11:06:41;;;;;;;33.20;16.80;;;;;;;;;;10468334;28;20121;-83
2023/12/10 11:11:43;;;;;;;30.93;15.07;;;;;;;;;;10482271;28;20036;-81
2023/12/10 11:16:44;;;;;;;31.20;15.00;;;;;;;;;;10482547;28;20029;-84
2023/12/10 11:21:46;;;;;;;31.53;15.77;;;;;;;;;;10474412;28;20075;-84
2023/12/10 11:26:47;;;;;;;32.80;16.40;;;;;;;;;;10476437;28;20093;-84
2023/12/10 11:31:48;;;;;;;34.47;17.03;;;;;;;;;;10483230;28;20020;-85
2023/12/10 11:36:49;;;;;;;32.83;17.73;;;;;;;;;;10488799;28;20032;-85
2023/12/10 11:41:51;;;;;;;37.60;19.70;;;;;;;;;;10495788;28;20088;-85
2023/12/10 11:46:52;;;;;;;34.23;18.47;;;;;;;;;;10492056;28;20060;-83
2023/12/10 11:51:53;;;;;;;40.13;19.63;;;;;;;;;;10463401;28;20424;-84
2023/12/10 11:56:55;;;;;;;39.37;20.17;;;;;;;;;;10467263;28;20033;-85
2023/12/10 12:01:57;;;;;;;33.63;19.57;;;;;;;;;;10476774;28;20131;-85
2023/12/10 12:06:58;;;;;;;42.27;21.60;;;;;;;;;;10479611;28;20045;-83
2023/12/10 12:11:59;;;;;;;41.70;22.70;;;;;;;;;;10487349;28;20036;-86
2023/12/10 12:17:04;;;;;;;57.13;27.23;;;;;;;;;;10481334;28;20071;-86
2023/12/10 12:22:06;;;;;;;42.23;21.23;;;;;;;;;;10480559;28;20112;-84
2023/12/10 12:27:08;;;;;;;40.50;19.23;;;;;;;;;;10482613;28;20138;-85
2023/12/10 12:32:09;;;;;;;41.23;20.93;;;;;;;;;;10466007;28;20387;-85
2023/12/10 12:37:10;;;;;;;34.10;18.37;;;;;;;;;;10483782;28;20036;-85
2023/12/10 12:42:12;;;;;;;34.30;18.17;;;;;;;;;;10473952;28;20136;-84
2023/12/10 12:47:13;;;;;;;35.13;18.37;;;;;;;;;;10468513;28;20089;-83
2023/12/10 12:52:15;;;;;;;37.10;19.13;;;;;;;;;;10476627;28;20064;-84
2023/12/10 12:57:16;;;;;;;35.50;18.00;;;;;;;;;;10457566;28;20028;-83
2023/12/10 13:02:18;;;;;;;40.70;18.57;;;;;;;;;;10475465;28;20568;-84
2023/12/10 13:07:19;;;;;;;41.60;19.30;;;;;;;;;;10479547;28;20043;-82
2023/12/10 13:12:26;;;;;;;33.23;16.47;;;;;;;;;;10458981;28;20468;-83
2023/12/10 13:17:27;;;;;;;33.67;17.53;;;;;;;;;;10477102;28;20380;-82
2023/12/10 13:22:28;;;;;;;41.87;21.20;;;;;;;;;;10485363;28;20376;-80
2023/12/10 13:27:29;;;;;;;41.10;21.27;;;;;;;;;;10479319;28;20794;-85
2023/12/10 13:32:30;;;;;;;43.93;22.67;;;;;;;;;;10486702;28;20486;-83
2023/12/10 13:37:31;;;;;;;51.90;26.87;;;;;;;;;;10489675;28;20024;-82
2023/12/10 13:42:33;;;;;;;47.60;25.53;;;;;;;;;;10497105;28;20048;-86
2023/12/10 13:47:35;;;;;;;47.27;24.60;;;;;;;;;;10489382;28;20062;-85
2023/12/10 13:52:37;;;;;;;45.83;24.87;;;;;;;;;;10470088;28;20040;-81
2023/12/10 13:57:38;;;;;;;57.60;27.20;;;;;;;;;;10490254;28;20032;-82
2023/12/10 14:02:40;;;;;;;55.83;29.30;;;;;;;;;;10489518;28;20112;-82
2023/12/10 14:07:44;;;;;;;47.07;24.30;;;;;;;;;;10481768;28;20136;-82
2023/12/10 14:12:46;;;;;;;51.40;26.97;;;;;;;;;;10487105;28;20094;-78
2023/12/10 14:17:47;;;;;;;51.97;26.37;;;;;;;;;;10385007;22;20094;-79
2023/12/10 14:22:48;;;;;;;49.57;25.87;;;;;;;;;;10288758;28;20026;-79
2023/12/10 14:27:49;;;;;;;58.33;30.57;;;;;;;;;;10286434;28;20031;-78
2023/12/10 14:32:57;;;;;;;48.90;27.40;;;;;;;;;;10289576;28;20038;-79
2023/12/10 14:37:58;;;;;;;160.70;78.13;;;;;;;;;;10294696;28;20031;-80
2023/12/10 14:43:00;;;;;;;178.23;73.40;;;;;;;;;;10287205;28;20031;-81
2023/12/10 14:48:01;;;;;;;110.30;49.80;;;;;;;;;;10288805;28;20380;-78
2023/12/10 14:53:02;;;;;;;120.10;56.10;;;;;;;;;;10286479;28;20386;-79
2023/12/10 14:58:03;;;;;;;97.73;46.83;;;;;;;;;;10279277;28;21175;-80
2023/12/10 15:03:05;;;;;;;93.00;47.10;;;;;;;;;;10292818;28;20035;-77
2023/12/10 15:08:06;;;;;;;115.83;52.10;;;;;;;;;;10294330;28;20038;-80
2023/12/10 15:13:07;;;;;;;97.57;43.90;;;;;;;;;;10286790;28;20034;-79
2023/12/10 15:18:08;;;;;;;91.57;44.83;;;;;;;;;;10284895;28;20065;-80
2023/12/10 15:23:09;;;;;;;64.60;32.83;;;;;;;;;;10239947;28;20138;-79
2023/12/10 15:28:10;;;;;;;72.63;33.37;;;;;;;;;;10243189;28;20050;-81
2023/12/10 15:33:12;;;;;;;80.27;38.93;;;;;;;;;;10243441;28;20094;-80
2023/12/10 15:38:13;;;;;;;90.60;43.37;;;;;;;;;;10245155;28;20089;-80
2023/12/10 15:43:15;;;;;;;111.30;51.43;;;;;;;;;;10257733;28;20519;-80
2023/12/10 15:48:16;;;;;;;99.43;45.93;;;;;;;;;;10245806;28;20095;-80
2023/12/10 15:53:17;;;;;;;85.20;40.17;;;;;;;;;;10245367;28;20919;-79
2023/12/10 15:58:18;;;;;;;82.77;39.90;;;;;;;;;;10246241;28;20127;-80
2023/12/10 16:03:22;;;;;;;88.27;44.03;;;;;;;;;;10247170;28;20050;-81
2023/12/10 16:08:24;;;;;;;97.27;50.37;;;;;;;;;;10252981;28;20039;-81
2023/12/10 16:13:25;;;;;;;82.57;44.90;;;;;;;;;;10253909;28;20038;-81
2023/12/10 16:18:26;;;;;;;75.13;36.63;;;;;;;;;;10260198;28;20760;-84
2023/12/10 16:23:28;;;;;;;71.67;36.57;;;;;;;;;;10292408;28;20394;-80
2023/12/10 16:28:29;;;;;;;92.97;45.23;;;;;;;;;;10292415;28;20034;-79
2023/12/10 16:33:30;;;;;;;88.13;42.83;;;;;;;;;;10301494;28;20019;-80
2023/12/10 16:38:31;;;;;;;85.33;41.37;;;;;;;;;;10287984;28;20054;-80
2023/12/10 16:43:32;;;;;;;81.40;40.40;;;;;;;;;;10277215;28;20156;-80
2023/12/10 16:48:34;;;;;;;80.40;41.37;;;;;;;;;;10284496;28;20047;-81
2023/12/10 16:53:35;;;;;;;75.30;34.03;;;;;;;;;;10283809;28;20214;-81
2023/12/10 16:58:36;;;;;;;63.50;30.33;;;;;;;;;;10284467;28;20479;-84
2023/12/10 17:03:37;;;;;;;62.37;28.37;;;;;;;;;;10290824;28;20892;-85
2023/12/10 17:08:39;;;;;;;66.47;33.00;;;;;;;;;;10291227;28;20499;-81
2023/12/10 17:13:40;;;;;;;69.50;34.20;;;;;;;;;;10289363;28;20061;-82
2023/12/10 17:18:41;;;;;;;71.30;32.40;;;;;;;;;;10288997;28;20630;-84
2023/12/10 17:23:42;;;;;;;65.33;33.90;;;;;;;;;;10287244;28;20027;-82
2023/12/10 17:28:44;;;;;;;69.37;35.47;;;;;;;;;;10287628;28;20770;-81
2023/12/10 17:33:45;;;;;;;63.17;33.70;;;;;;;;;;10271796;28;20039;-82
2023/12/10 17:38:46;;;;;;;69.97;34.70;;;;;;;;;;10288785;28;20035;-82
2023/12/10 17:43:47;;;;;;;70.37;36.53;;;;;;;;;;10287571;28;20402;-84
2023/12/10 17:48:49;;;;;;;79.17;37.33;;;;;;;;;;10288524;28;20074;-84
2023/12/10 17:53:50;;;;;;;67.70;33.53;;;;;;;;;;10288331;28;20034;-81
2023/12/10 17:58:52;;;;;;;158.63;84.10;;;;;;;;;;10280860;28;20046;-81
2023/12/10 18:03:53;;;;;;;84.00;43.93;;;;;;;;;;10288784;28;20815;-85
2023/12/10 18:08:54;;;;;;;106.80;47.60;;;;;;;;;;10287336;28;20426;-81
2023/12/10 18:13:55;;;;;;;233.83;97.93;;;;;;;;;;10288816;28;20046;-81
2023/12/10 18:18:56;;;;;;;389.03;144.97;;;;;;;;;;10285995;28;20050;-82
2023/12/10 18:23:58;;;;;;;267.50;109.03;;;;;;;;;;10286238;28;20037;-82
2023/12/10 18:28:59;;;;;;;163.77;72.67;;;;;;;;;;10287169;28;20060;-85
2023/12/10 18:34:01;;;;;;;108.30;53.37;;;;;;;;;;10286327;28;20035;-85
2023/12/10 18:39:02;;;;;;;105.70;50.13;;;;;;;;;;10286101;28;20038;-82
2023/12/10 18:44:03;;;;;;;113.83;51.40;;;;;;;;;;10285571;28;20126;-82
2023/12/10 18:49:04;;;;;;;117.03;52.00;;;;;;;;;;10285553;28;20073;-83
2023/12/10 18:54:05;;;;;;;106.63;51.47;;;;;;;;;;10285986;28;20027;-82
2023/12/10 18:59:06;;;;;;;93.13;43.93;;;;;;;;;;10285845;28;20026;-85
2023/12/10 19:04:07;;;;;;;79.37;38.00;;;;;;;;;;10285989;28;20103;-85
2023/12/10 19:09:08;;;;;;;84.90;41.77;;;;;;;;;;10285341;28;20109;-86
2023/12/10 19:14:16;;;;;;;78.47;38.90;;;;;;;;;;10287869;28;20067;-84
2023/12/10 19:19:17;;;;;;;74.47;33.60;;;;;;;;;;10285132;28;20058;-85
2023/12/10 19:24:18;;;;;;;79.93;40.17;;;;;;;;;;10264652;28;20113;-82
2023/12/10 19:29:19;;;;;;;88.83;37.77;;;;;;;;;;10287421;28;20050;-79
2023/12/10 19:34:20;;;;;;;86.00;40.07;;;;;;;;;;10286046;28;20027;-82
2023/12/10 19:39:22;;;;;;;106.70;52.20;;;;;;;;;;10282544;28;20030;-82
2023/12/10 19:44:23;;;;;;;93.83;41.63;;;;;;;;;;10275605;28;20041;-82
2023/12/10 19:49:25;;;;;;;92.53;43.53;;;;;;;;;;10295380;28;20498;-85
2023/12/10 19:54:26;;;;;;;92.13;45.50;;;;;;;;;;10287122;28;20525;-82
2023/12/10 19:59:27;;;;;;;79.17;37.93;;;;;;;;;;10284693;28;20390;-83
2023/12/10 20:04:29;;;;;;;66.50;32.30;;;;;;;;;;10262060;28;20478;-83
2023/12/10 20:09:30;;;;;;;68.73;32.03;;;;;;;;;;10289734;28;20474;-84
2023/12/10 20:14:33;;;;;;;62.63;31.00;;;;;;;;;;10287848;28;20070;-82
2023/12/10 20:19:34;;;;;;;58.80;28.37;;;;;;;;;;10289078;28;20113;-85
2023/12/10 20:24:36;;;;;;;63.40;29.87;;;;;;;;;;10285210;28;20045;-86
2023/12/10 20:29:43;;;;;;;63.00;29.07;;;;;;;;;;10285415;28;20073;-81
2023/12/10 20:34:46;;;;;;;60.10;27.47;;;;;;;;;;10289805;28;20041;-82
2023/12/10 20:39:47;;;;;;;57.07;25.13;;;;;;;;;;10285805;28;20035;-81
2023/12/10 20:44:50;;;;;;;54.03;27.07;;;;;;;;;;10267615;28;20050;-83
2023/12/10 20:49:51;;;;;;;56.23;23.90;;;;;;;;;;10281482;28;20577;-84
2023/12/10 20:54:52;;;;;;;52.93;23.53;;;;;;;;;;10287467;28;20038;-84
2023/12/10 20:59:53;;;;;;;50.17;21.93;;;;;;;;;;10300285;28;20115;-83
2023/12/10 21:04:54;;;;;;;60.30;23.13;;;;;;;;;;10294925;28;20043;-81
2023/12/10 21:09:55;;;;;;;68.43;27.93;;;;;;;;;;10284172;28;20066;-81
2023/12/10 21:14:57;;;;;;;87.93;32.67;;;;;;;;;;10291619;28;20486;-82
2023/12/10 21:19:58;;;;;;;70.57;32.20;;;;;;;;;;10290107;28;20514;-81
2023/12/10 21:24:59;;;;;;;64.87;27.93;;;;;;;;;;10293333;28;20439;-82
2023/12/10 21:30:00;;;;;;;55.97;25.13;;;;;;;;;;10289177;28;20536;-84
2023/12/10 21:35:02;;;;;;;60.07;25.33;;;;;;;;;;10283380;28;20066;-80
2023/12/10 21:40:04;;;;;;;61.23;25.60;;;;;;;;;;10270799;28;20038;-81
2023/12/10 21:45:06;;;;;;;61.27;25.67;;;;;;;;;;10290658;28;20055;-80
2023/12/10 21:50:07;;;;;;;63.43;26.73;;;;;;;;;;10292718;28;20026;-80
2023/12/10 21:55:08;;;;;;;57.00;24.33;;;;;;;;;;10291338;28;20074;-81
2023/12/10 22:00:10;;;;;;;48.40;20.83;;;;;;;;;;10288374;28;20114;-83
2023/12/10 22:05:11;;;;;;;45.50;19.87;;;;;;;;;;10286883;28;20474;-81
2023/12/10 22:10:13;;;;;;;44.70;20.77;;;;;;;;;;10286404;28;20154;-81
2023/12/10 22:15:14;;;;;;;45.97;20.57;;;;;;;;;;10288662;28;20069;-82
2023/12/10 22:20:18;;;;;;;44.70;19.13;;;;;;;;;;10285122;28;20105;-82
2023/12/10 22:25:19;;;;;;;40.10;16.37;;;;;;;;;;10288058;28;20128;-81
2023/12/10 22:30:20;;;;;;;36.00;16.70;;;;;;;;;;10287166;28;20030;-80
2023/12/10 22:35:21;;;;;;;33.37;16.57;;;;;;;;;;10288485;28;20431;-81
2023/12/10 22:40:22;;;;;;;40.70;16.97;;;;;;;;;;10288720;28;20043;-81
2023/12/10 22:45:23;;;;;;;39.53;17.67;;;;;;;;;;10286759;28;20562;-81
2023/12/10 22:50:24;;;;;;;37.03;16.10;;;;;;;;;;10287982;28;20030;-82
2023/12/10 22:55:25;;;;;;;44.00;16.50;;;;;;;;;;10284580;28;20066;-80
2023/12/10 23:00:28;;;;;;;35.70;15.53;;;;;;;;;;10286104;28;20061;-79
2023/12/10 23:05:29;;;;;;;42.23;17.73;;;;;;;;;;10287049;28;20043;-81
2023/12/10 23:10:30;;;;;;;40.07;16.77;;;;;;;;;;10295735;28;20402;-80
2023/12/10 23:15:31;;;;;;;39.70;17.37;;;;;;;;;;10285007;28;20030;-82
2023/12/10 23:20:32;;;;;;;41.83;16.23;;;;;;;;;;10286753;28;20086;-80
2023/12/10 23:25:34;;;;;;;38.77;15.57;;;;;;;;;;10295511;28;20479;-84
2023/12/10 23:30:35;;;;;;;43.30;15.80;;;;;;;;;;10285639;28;20529;-80
2023/12/10 23:35:36;;;;;;;36.07;14.60;;;;;;;;;;10275275;28;20097;-82
2023/12/10 23:40:37;;;;;;;36.70;13.93;;;;;;;;;;10277241;28;20507;-80
2023/12/10 23:45:38;;;;;;;34.87;16.13;;;;;;;;;;10286571;28;20681;-80
2023/12/10 23:50:39;;;;;;;39.47;14.07;;;;;;;;;;10268702;28;20059;-80
2023/12/10 23:55:40;;;;;;;33.27;14.57;;;;;;;;;;10296812;28;20031;-83
